sensor_id;sensor_type;location;lat;lon;timestamp;P1;durP1;ratioP1;P2;durP2;ratioP2
51098;SDS011;37146;48.210;16.234;2022-08-25T00:01:12;22.00;;;9.43;;
51098;SDS011;37146;48.210;16.234;2022-08-25T00:03:43;21.60;;;9.80;;
51098;SDS011;37146;48.210;16.234;2022-08-25T00:06:09;19.85;;;9.25;;
51098;SDS011;37146;48.210;16.234;2022-08-25T00:08:35;20.38;;;10.05;;
51098;SDS011;37146;48.210;16.234;2022-08-25T00:11:06;16.75;;;9.18;;
51098;SDS011;37146;48.210;16.234;2022-08-25T00:13:35;21.67;;;10.05;;
51098;SDS011;37146;48.210;16.234;2022-08-25T00:16:02;18.35;;;10.15;;
51098;SDS011;37146;48.210;16.234;2022-08-25T00:18:27;16.75;;;9.27;;
51098;SDS011;37146;48.210;16.234;2022-08-25T00:20:52;19.30;;;9.80;;
51098;SDS011;37146;48.210;16.234;2022-08-25T00:23:18;18.60;;;10.65;;
51098;SDS011;37146;48.210;16.234;2022-08-25T00:25:44;17.23;;;10.13;;
51098;SDS011;37146;48.210;16.234;2022-08-25T00:28:09;18.05;;;10.32;;
51098;SDS011;37146;48.210;16.234;2022-08-25T00:30:35;19.27;;;9.57;;
51098;SDS011;37146;48.210;16.234;2022-08-25T00:33:01;22.60;;;9.82;;
51098;SDS011;37146;48.210;16.234;2022-08-25T00:35:27;25.65;;;10.18;;
51098;SDS011;37146;48.210;16.234;2022-08-25T00:37:53;15.95;;;9.40;;
51098;SDS011;37146;48.210;16.234;2022-08-25T00:40:18;18.85;;;9.88;;
51098;SDS011;37146;48.210;16.234;2022-08-25T00:42:44;16.73;;;9.85;;
51098;SDS011;37146;48.210;16.234;2022-08-25T00:45:09;20.13;;;9.77;;
51098;SDS011;37146;48.210;16.234;2022-08-25T00:47:35;21.40;;;10.30;;
51098;SDS011;37146;48.210;16.234;2022-08-25T00:50:02;17.40;;;10.00;;
51098;SDS011;37146;48.210;16.234;2022-08-25T00:52:41;20.45;;;10.20;;
51098;SDS011;37146;48.210;16.234;2022-08-25T00:55:13;16.80;;;10.10;;
51098;SDS011;37146;48.210;16.234;2022-08-25T00:57:59;17.98;;;9.73;;
51098;SDS011;37146;48.210;16.234;2022-08-25T01:00:30;18.73;;;9.68;;
51098;SDS011;37146;48.210;16.234;2022-08-25T01:02:59;17.20;;;9.77;;
51098;SDS011;37146;48.210;16.234;2022-08-25T01:05:25;28.90;;;10.82;;
51098;SDS011;37146;48.210;16.234;2022-08-25T01:07:51;17.73;;;10.35;;
51098;SDS011;37146;48.210;16.234;2022-08-25T01:10:18;17.27;;;9.35;;
51098;SDS011;37146;48.210;16.234;2022-08-25T01:12:46;19.33;;;11.10;;
51098;SDS011;37146;48.210;16.234;2022-08-25T01:15:13;20.35;;;10.43;;
51098;SDS011;37146;48.210;16.234;2022-08-25T01:17:52;16.60;;;10.45;;
51098;SDS011;37146;48.210;16.234;2022-08-25T01:20:20;18.70;;;9.90;;
51098;SDS011;37146;48.210;16.234;2022-08-25T01:22:48;15.85;;;10.07;;
51098;SDS011;37146;48.210;16.234;2022-08-25T01:25:38;16.05;;;9.38;;
51098;SDS011;37146;48.210;16.234;2022-08-25T01:28:15;20.15;;;10.27;;
51098;SDS011;37146;48.210;16.234;2022-08-25T01:30:40;18.90;;;9.68;;
51098;SDS011;37146;48.210;16.234;2022-08-25T01:33:07;19.15;;;9.75;;
51098;SDS011;37146;48.210;16.234;2022-08-25T01:35:34;15.52;;;9.82;;
51098;SDS011;37146;48.210;16.234;2022-08-25T01:38:00;18.02;;;9.43;;
51098;SDS011;37146;48.210;16.234;2022-08-25T01:40:28;15.85;;;9.20;;
51098;SDS011;37146;48.210;16.234;2022-08-25T01:42:57;17.23;;;9.65;;
51098;SDS011;37146;48.210;16.234;2022-08-25T01:45:39;19.23;;;9.95;;
51098;SDS011;37146;48.210;16.234;2022-08-25T01:48:08;17.10;;;9.63;;
51098;SDS011;37146;48.210;16.234;2022-08-25T01:50:34;18.13;;;9.52;;
51098;SDS011;37146;48.210;16.234;2022-08-25T01:53:06;17.35;;;10.00;;
51098;SDS011;37146;48.210;16.234;2022-08-25T01:55:36;17.63;;;10.35;;
51098;SDS011;37146;48.210;16.234;2022-08-25T01:58:19;20.80;;;10.07;;
51098;SDS011;37146;48.210;16.234;2022-08-25T02:00:46;14.57;;;9.77;;
51098;SDS011;37146;48.210;16.234;2022-08-25T02:03:13;19.95;;;9.88;;
51098;SDS011;37146;48.210;16.234;2022-08-25T02:05:39;17.30;;;9.50;;
51098;SDS011;37146;48.210;16.234;2022-08-25T02:08:04;19.73;;;10.20;;
51098;SDS011;37146;48.210;16.234;2022-08-25T02:10:31;20.17;;;10.73;;
51098;SDS011;37146;48.210;16.234;2022-08-25T02:12:57;18.33;;;9.77;;
51098;SDS011;37146;48.210;16.234;2022-08-25T02:15:22;20.70;;;11.02;;
51098;SDS011;37146;48.210;16.234;2022-08-25T02:17:48;19.40;;;9.70;;
51098;SDS011;37146;48.210;16.234;2022-08-25T02:20:13;21.15;;;10.63;;
51098;SDS011;37146;48.210;16.234;2022-08-25T02:22:38;16.63;;;10.88;;
51098;SDS011;37146;48.210;16.234;2022-08-25T02:25:04;19.33;;;10.85;;
51098;SDS011;37146;48.210;16.234;2022-08-25T02:27:30;20.30;;;11.48;;
51098;SDS011;37146;48.210;16.234;2022-08-25T02:29:55;21.73;;;10.98;;
51098;SDS011;37146;48.210;16.234;2022-08-25T02:32:21;20.83;;;10.73;;
51098;SDS011;37146;48.210;16.234;2022-08-25T02:34:46;19.85;;;10.77;;
51098;SDS011;37146;48.210;16.234;2022-08-25T02:37:12;21.80;;;11.10;;
51098;SDS011;37146;48.210;16.234;2022-08-25T02:39:38;21.75;;;10.63;;
51098;SDS011;37146;48.210;16.234;2022-08-25T02:42:03;17.63;;;10.75;;
51098;SDS011;37146;48.210;16.234;2022-08-25T02:44:29;16.67;;;9.95;;
51098;SDS011;37146;48.210;16.234;2022-08-25T02:46:55;18.75;;;10.05;;
51098;SDS011;37146;48.210;16.234;2022-08-25T02:49:21;22.45;;;10.30;;
51098;SDS011;37146;48.210;16.234;2022-08-25T02:51:46;17.17;;;10.27;;
51098;SDS011;37146;48.210;16.234;2022-08-25T02:54:12;14.73;;;10.35;;
51098;SDS011;37146;48.210;16.234;2022-08-25T02:56:37;17.25;;;10.57;;
51098;SDS011;37146;48.210;16.234;2022-08-25T02:59:04;21.30;;;10.50;;
51098;SDS011;37146;48.210;16.234;2022-08-25T03:01:30;18.35;;;10.88;;
51098;SDS011;37146;48.210;16.234;2022-08-25T03:03:56;20.55;;;10.98;;
51098;SDS011;37146;48.210;16.234;2022-08-25T03:06:22;17.52;;;10.55;;
51098;SDS011;37146;48.210;16.234;2022-08-25T03:08:48;16.88;;;10.73;;
51098;SDS011;37146;48.210;16.234;2022-08-25T03:11:14;20.88;;;10.98;;
51098;SDS011;37146;48.210;16.234;2022-08-25T03:13:41;16.17;;;10.77;;
51098;SDS011;37146;48.210;16.234;2022-08-25T03:16:06;19.70;;;11.20;;
51098;SDS011;37146;48.210;16.234;2022-08-25T03:18:33;21.40;;;10.35;;
51098;SDS011;37146;48.210;16.234;2022-08-25T03:20:58;16.02;;;10.75;;
51098;SDS011;37146;48.210;16.234;2022-08-25T03:23:24;17.88;;;10.77;;
51098;SDS011;37146;48.210;16.234;2022-08-25T03:25:50;17.92;;;10.88;;
51098;SDS011;37146;48.210;16.234;2022-08-25T03:28:37;21.27;;;10.73;;
51098;SDS011;37146;48.210;16.234;2022-08-25T03:31:02;21.80;;;10.52;;
51098;SDS011;37146;48.210;16.234;2022-08-25T03:33:28;18.85;;;11.25;;
51098;SDS011;37146;48.210;16.234;2022-08-25T03:35:55;19.60;;;11.63;;
51098;SDS011;37146;48.210;16.234;2022-08-25T03:38:21;20.27;;;10.90;;
51098;SDS011;37146;48.210;16.234;2022-08-25T03:40:47;23.52;;;11.63;;
51098;SDS011;37146;48.210;16.234;2022-08-25T03:43:14;24.55;;;11.73;;
51098;SDS011;37146;48.210;16.234;2022-08-25T03:45:40;26.27;;;11.27;;
51098;SDS011;37146;48.210;16.234;2022-08-25T03:48:07;18.25;;;11.05;;
51098;SDS011;37146;48.210;16.234;2022-08-25T03:50:32;23.48;;;11.15;;
51098;SDS011;37146;48.210;16.234;2022-08-25T03:52:58;17.30;;;11.35;;
51098;SDS011;37146;48.210;16.234;2022-08-25T03:55:24;21.67;;;11.93;;
51098;SDS011;37146;48.210;16.234;2022-08-25T03:57:51;19.60;;;12.38;;
51098;SDS011;37146;48.210;16.234;2022-08-25T04:00:18;22.27;;;12.38;;
51098;SDS011;37146;48.210;16.234;2022-08-25T04:02:45;27.83;;;13.02;;
51098;SDS011;37146;48.210;16.234;2022-08-25T04:05:10;27.05;;;13.85;;
51098;SDS011;37146;48.210;16.234;2022-08-25T04:07:36;19.30;;;12.50;;
51098;SDS011;37146;48.210;16.234;2022-08-25T04:10:03;24.73;;;13.30;;
51098;SDS011;37146;48.210;16.234;2022-08-25T04:12:33;25.53;;;11.40;;
51098;SDS011;37146;48.210;16.234;2022-08-25T04:14:58;19.40;;;12.07;;
51098;SDS011;37146;48.210;16.234;2022-08-25T04:17:25;20.73;;;12.55;;
51098;SDS011;37146;48.210;16.234;2022-08-25T04:19:50;21.05;;;11.88;;
51098;SDS011;37146;48.210;16.234;2022-08-25T04:22:16;21.85;;;12.50;;
51098;SDS011;37146;48.210;16.234;2022-08-25T04:24:41;23.13;;;11.98;;
51098;SDS011;37146;48.210;16.234;2022-08-25T04:27:07;24.83;;;12.63;;
51098;SDS011;37146;48.210;16.234;2022-08-25T04:29:32;20.75;;;12.63;;
51098;SDS011;37146;48.210;16.234;2022-08-25T04:31:58;18.38;;;11.75;;
51098;SDS011;37146;48.210;16.234;2022-08-25T04:34:24;19.30;;;12.13;;
51098;SDS011;37146;48.210;16.234;2022-08-25T04:36:50;19.80;;;11.68;;
51098;SDS011;37146;48.210;16.234;2022-08-25T04:39:17;20.48;;;12.65;;
51098;SDS011;37146;48.210;16.234;2022-08-25T04:41:45;24.08;;;12.77;;
51098;SDS011;37146;48.210;16.234;2022-08-25T04:44:11;24.08;;;13.07;;
51098;SDS011;37146;48.210;16.234;2022-08-25T04:46:36;22.40;;;12.45;;
51098;SDS011;37146;48.210;16.234;2022-08-25T04:49:02;21.15;;;12.40;;
51098;SDS011;37146;48.210;16.234;2022-08-25T04:51:33;19.58;;;12.52;;
51098;SDS011;37146;48.210;16.234;2022-08-25T04:54:01;26.13;;;12.93;;
51098;SDS011;37146;48.210;16.234;2022-08-25T04:56:32;21.98;;;12.15;;
51098;SDS011;37146;48.210;16.234;2022-08-25T04:59:00;21.27;;;12.48;;
51098;SDS011;37146;48.210;16.234;2022-08-25T05:01:28;19.98;;;11.23;;
51098;SDS011;37146;48.210;16.234;2022-08-25T05:03:54;19.95;;;11.05;;
51098;SDS011;37146;48.210;16.234;2022-08-25T05:06:22;18.65;;;10.68;;
51098;SDS011;37146;48.210;16.234;2022-08-25T05:08:48;18.73;;;11.02;;
51098;SDS011;37146;48.210;16.234;2022-08-25T05:11:14;18.88;;;10.63;;
51098;SDS011;37146;48.210;16.234;2022-08-25T05:13:41;18.83;;;11.00;;
51098;SDS011;37146;48.210;16.234;2022-08-25T05:16:08;17.13;;;10.90;;
51098;SDS011;37146;48.210;16.234;2022-08-25T05:18:34;18.65;;;10.52;;
51098;SDS011;37146;48.210;16.234;2022-08-25T05:21:03;23.52;;;10.73;;
51098;SDS011;37146;48.210;16.234;2022-08-25T05:26:00;17.40;;;10.63;;
51098;SDS011;37146;48.210;16.234;2022-08-25T05:28:30;17.55;;;10.50;;
51098;SDS011;37146;48.210;16.234;2022-08-25T05:30:57;20.60;;;11.48;;
51098;SDS011;37146;48.210;16.234;2022-08-25T05:33:24;18.65;;;10.93;;
51098;SDS011;37146;48.210;16.234;2022-08-25T05:35:50;22.90;;;11.05;;
51098;SDS011;37146;48.210;16.234;2022-08-25T05:38:16;20.88;;;11.20;;
51098;SDS011;37146;48.210;16.234;2022-08-25T05:40:41;17.27;;;10.55;;
51098;SDS011;37146;48.210;16.234;2022-08-25T05:43:07;22.83;;;11.43;;
51098;SDS011;37146;48.210;16.234;2022-08-25T05:45:32;18.30;;;11.38;;
51098;SDS011;37146;48.210;16.234;2022-08-25T05:47:58;16.02;;;10.68;;
51098;SDS011;37146;48.210;16.234;2022-08-25T05:50:23;17.90;;;11.65;;
51098;SDS011;37146;48.210;16.234;2022-08-25T05:52:49;16.75;;;10.60;;
51098;SDS011;37146;48.210;16.234;2022-08-25T05:55:14;16.92;;;10.10;;
51098;SDS011;37146;48.210;16.234;2022-08-25T05:57:40;17.10;;;10.90;;
51098;SDS011;37146;48.210;16.234;2022-08-25T06:00:06;21.83;;;10.45;;
51098;SDS011;37146;48.210;16.234;2022-08-25T06:02:32;22.75;;;11.73;;
51098;SDS011;37146;48.210;16.234;2022-08-25T06:05:13;18.20;;;10.75;;
51098;SDS011;37146;48.210;16.234;2022-08-25T06:07:43;20.45;;;10.65;;
51098;SDS011;37146;48.210;16.234;2022-08-25T06:10:10;22.17;;;11.60;;
51098;SDS011;37146;48.210;16.234;2022-08-25T06:12:38;15.23;;;10.48;;
51098;SDS011;37146;48.210;16.234;2022-08-25T06:15:05;18.35;;;10.68;;
51098;SDS011;37146;48.210;16.234;2022-08-25T06:17:31;17.50;;;10.40;;
51098;SDS011;37146;48.210;16.234;2022-08-25T06:19:59;20.48;;;10.80;;
51098;SDS011;37146;48.210;16.234;2022-08-25T06:22:24;18.73;;;11.13;;
51098;SDS011;37146;48.210;16.234;2022-08-25T06:24:50;17.95;;;10.43;;
51098;SDS011;37146;48.210;16.234;2022-08-25T06:27:16;16.95;;;10.10;;
51098;SDS011;37146;48.210;16.234;2022-08-25T06:29:41;20.95;;;10.52;;
51098;SDS011;37146;48.210;16.234;2022-08-25T06:32:07;17.85;;;10.60;;
51098;SDS011;37146;48.210;16.234;2022-08-25T06:34:32;16.00;;;10.68;;
51098;SDS011;37146;48.210;16.234;2022-08-25T06:36:58;18.15;;;10.93;;
51098;SDS011;37146;48.210;16.234;2022-08-25T06:39:23;16.75;;;10.13;;
51098;SDS011;37146;48.210;16.234;2022-08-25T06:41:49;17.27;;;10.20;;
51098;SDS011;37146;48.210;16.234;2022-08-25T06:44:16;20.13;;;10.50;;
51098;SDS011;37146;48.210;16.234;2022-08-25T06:46:42;15.85;;;9.73;;
51098;SDS011;37146;48.210;16.234;2022-08-25T06:49:07;17.52;;;10.30;;
51098;SDS011;37146;48.210;16.234;2022-08-25T06:51:33;22.63;;;11.10;;
51098;SDS011;37146;48.210;16.234;2022-08-25T06:54:03;18.38;;;10.85;;
51098;SDS011;37146;48.210;16.234;2022-08-25T06:56:30;20.92;;;11.38;;
51098;SDS011;37146;48.210;16.234;2022-08-25T06:58:56;20.25;;;11.23;;
51098;SDS011;37146;48.210;16.234;2022-08-25T07:01:22;19.42;;;10.07;;
51098;SDS011;37146;48.210;16.234;2022-08-25T07:03:50;17.58;;;10.55;;
51098;SDS011;37146;48.210;16.234;2022-08-25T07:06:18;25.20;;;10.30;;
51098;SDS011;37146;48.210;16.234;2022-08-25T07:08:44;19.30;;;10.82;;
51098;SDS011;37146;48.210;16.234;2022-08-25T07:11:11;16.83;;;10.95;;
51098;SDS011;37146;48.210;16.234;2022-08-25T07:13:38;17.35;;;10.73;;
51098;SDS011;37146;48.210;16.234;2022-08-25T07:16:04;16.98;;;10.43;;
51098;SDS011;37146;48.210;16.234;2022-08-25T07:18:30;19.77;;;11.23;;
51098;SDS011;37146;48.210;16.234;2022-08-25T07:20:57;17.77;;;10.93;;
51098;SDS011;37146;48.210;16.234;2022-08-25T07:23:23;19.13;;;10.75;;
51098;SDS011;37146;48.210;16.234;2022-08-25T07:25:49;16.08;;;9.85;;
51098;SDS011;37146;48.210;16.234;2022-08-25T07:28:15;21.65;;;11.32;;
51098;SDS011;37146;48.210;16.234;2022-08-25T07:30:41;18.83;;;10.63;;
51098;SDS011;37146;48.210;16.234;2022-08-25T07:33:07;18.00;;;10.73;;
51098;SDS011;37146;48.210;16.234;2022-08-25T07:35:33;20.27;;;10.25;;
51098;SDS011;37146;48.210;16.234;2022-08-25T07:38:00;19.27;;;11.05;;
51098;SDS011;37146;48.210;16.234;2022-08-25T07:40:27;19.13;;;11.35;;
51098;SDS011;37146;48.210;16.234;2022-08-25T07:42:55;21.05;;;10.63;;
51098;SDS011;37146;48.210;16.234;2022-08-25T07:45:23;19.75;;;10.50;;
51098;SDS011;37146;48.210;16.234;2022-08-25T07:47:55;19.17;;;10.90;;
51098;SDS011;37146;48.210;16.234;2022-08-25T07:50:21;25.75;;;11.20;;
51098;SDS011;37146;48.210;16.234;2022-08-25T07:52:47;26.08;;;11.18;;
51098;SDS011;37146;48.210;16.234;2022-08-25T07:55:13;18.50;;;10.95;;
51098;SDS011;37146;48.210;16.234;2022-08-25T07:57:39;24.23;;;11.85;;
51098;SDS011;37146;48.210;16.234;2022-08-25T08:00:05;21.30;;;11.50;;
51098;SDS011;37146;48.210;16.234;2022-08-25T08:02:32;21.35;;;10.50;;
51098;SDS011;37146;48.210;16.234;2022-08-25T08:04:58;29.38;;;11.57;;
51098;SDS011;37146;48.210;16.234;2022-08-25T08:07:24;25.13;;;11.80;;
51098;SDS011;37146;48.210;16.234;2022-08-25T08:09:50;26.17;;;11.63;;
51098;SDS011;37146;48.210;16.234;2022-08-25T08:12:17;19.92;;;11.32;;
51098;SDS011;37146;48.210;16.234;2022-08-25T08:14:43;28.15;;;11.30;;
51098;SDS011;37146;48.210;16.234;2022-08-25T08:17:09;29.75;;;11.50;;
51098;SDS011;37146;48.210;16.234;2022-08-25T08:19:35;21.48;;;10.85;;
51098;SDS011;37146;48.210;16.234;2022-08-25T08:22:02;21.85;;;11.80;;
51098;SDS011;37146;48.210;16.234;2022-08-25T08:24:29;23.60;;;11.63;;
51098;SDS011;37146;48.210;16.234;2022-08-25T08:26:55;21.27;;;11.27;;
51098;SDS011;37146;48.210;16.234;2022-08-25T08:29:21;23.55;;;11.25;;
51098;SDS011;37146;48.210;16.234;2022-08-25T08:31:47;22.15;;;11.57;;
51098;SDS011;37146;48.210;16.234;2022-08-25T08:34:13;24.63;;;11.20;;
51098;SDS011;37146;48.210;16.234;2022-08-25T08:36:38;21.10;;;10.85;;
51098;SDS011;37146;48.210;16.234;2022-08-25T08:39:04;25.90;;;11.80;;
51098;SDS011;37146;48.210;16.234;2022-08-25T08:41:39;22.38;;;11.88;;
51098;SDS011;37146;48.210;16.234;2022-08-25T08:47:33;19.92;;;10.68;;
51098;SDS011;37146;48.210;16.234;2022-08-25T08:53:17;19.73;;;11.25;;
51098;SDS011;37146;48.210;16.234;2022-08-25T08:55:50;22.63;;;10.75;;
51098;SDS011;37146;48.210;16.234;2022-08-25T08:58:21;22.52;;;11.20;;
51098;SDS011;37146;48.210;16.234;2022-08-25T09:00:51;22.83;;;11.10;;
51098;SDS011;37146;48.210;16.234;2022-08-25T09:05:52;21.38;;;11.55;;
51098;SDS011;37146;48.210;16.234;2022-08-25T09:08:21;24.13;;;11.80;;
51098;SDS011;37146;48.210;16.234;2022-08-25T09:16:15;29.02;;;13.15;;
51098;SDS011;37146;48.210;16.234;2022-08-25T09:19:24;25.55;;;12.63;;
51098;SDS011;37146;48.210;16.234;2022-08-25T09:30:06;24.67;;;12.38;;
51098;SDS011;37146;48.210;16.234;2022-08-25T09:32:37;22.48;;;12.90;;
51098;SDS011;37146;48.210;16.234;2022-08-25T09:35:06;26.00;;;12.45;;
51098;SDS011;37146;48.210;16.234;2022-08-25T09:37:39;23.02;;;12.73;;
51098;SDS011;37146;48.210;16.234;2022-08-25T09:40:04;25.45;;;13.10;;
51098;SDS011;37146;48.210;16.234;2022-08-25T09:42:47;25.55;;;12.20;;
51098;SDS011;37146;48.210;16.234;2022-08-25T09:45:14;26.92;;;12.18;;
51098;SDS011;37146;48.210;16.234;2022-08-25T09:47:43;23.17;;;13.25;;
51098;SDS011;37146;48.210;16.234;2022-08-25T09:50:14;23.88;;;12.15;;
51098;SDS011;37146;48.210;16.234;2022-08-25T09:52:42;21.05;;;11.30;;
51098;SDS011;37146;48.210;16.234;2022-08-25T09:57:48;21.52;;;11.65;;
51098;SDS011;37146;48.210;16.234;2022-08-25T10:00:23;23.30;;;12.20;;
51098;SDS011;37146;48.210;16.234;2022-08-25T10:08:34;19.58;;;10.43;;
51098;SDS011;37146;48.210;16.234;2022-08-25T10:11:11;25.20;;;10.68;;
51098;SDS011;37146;48.210;16.234;2022-08-25T10:13:46;26.70;;;15.93;;
51098;SDS011;37146;48.210;16.234;2022-08-25T10:19:03;66.00;;;34.35;;
51098;SDS011;37146;48.210;16.234;2022-08-25T10:21:32;30.55;;;14.65;;
51098;SDS011;37146;48.210;16.234;2022-08-25T10:23:58;29.38;;;14.57;;
51098;SDS011;37146;48.210;16.234;2022-08-25T10:26:33;29.42;;;15.25;;
51098;SDS011;37146;48.210;16.234;2022-08-25T10:45:25;18.90;;;9.30;;
51098;SDS011;37146;48.210;16.234;2022-08-25T10:54:00;12.95;;;8.82;;
51098;SDS011;37146;48.210;16.234;2022-08-25T10:56:39;16.15;;;9.35;;
51098;SDS011;37146;48.210;16.234;2022-08-25T11:04:40;18.98;;;8.88;;
51098;SDS011;37146;48.210;16.234;2022-08-25T11:09:47;17.52;;;8.35;;
51098;SDS011;37146;48.210;16.234;2022-08-25T11:12:21;16.42;;;8.65;;
51098;SDS011;37146;48.210;16.234;2022-08-25T11:14:59;17.13;;;7.75;;
51098;SDS011;37146;48.210;16.234;2022-08-25T11:17:37;13.30;;;7.82;;
51098;SDS011;37146;48.210;16.234;2022-08-25T11:20:13;21.52;;;8.48;;
51098;SDS011;37146;48.210;16.234;2022-08-25T11:23:05;14.23;;;8.07;;
51098;SDS011;37146;48.210;16.234;2022-08-25T11:26:18;14.77;;;8.73;;
51098;SDS011;37146;48.210;16.234;2022-08-25T11:28:32;20.20;;;8.52;;
51098;SDS011;37146;48.210;16.234;2022-08-25T11:31:04;22.60;;;8.20;;
51098;SDS011;37146;48.210;16.234;2022-08-25T11:33:32;15.38;;;8.00;;
51098;SDS011;37146;48.210;16.234;2022-08-25T11:35:59;17.83;;;8.65;;
51098;SDS011;37146;48.210;16.234;2022-08-25T11:51:48;12.52;;;6.97;;
51098;SDS011;37146;48.210;16.234;2022-08-25T12:04:58;13.68;;;7.20;;
51098;SDS011;37146;48.210;16.234;2022-08-25T12:07:28;14.95;;;6.82;;
51098;SDS011;37146;48.210;16.234;2022-08-25T12:12:56;8.27;;;6.43;;
51098;SDS011;37146;48.210;16.234;2022-08-25T12:28:46;14.43;;;7.38;;
51098;SDS011;37146;48.210;16.234;2022-08-25T12:31:44;15.32;;;7.90;;
51098;SDS011;37146;48.210;16.234;2022-08-25T12:36:56;12.50;;;7.75;;
51098;SDS011;37146;48.210;16.234;2022-08-25T12:39:27;11.38;;;6.93;;
51098;SDS011;37146;48.210;16.234;2022-08-25T12:42:00;16.77;;;7.18;;
51098;SDS011;37146;48.210;16.234;2022-08-25T12:47:12;14.48;;;7.68;;
51098;SDS011;37146;48.210;16.234;2022-08-25T12:50:39;11.80;;;7.43;;
51098;SDS011;37146;48.210;16.234;2022-08-25T12:53:06;12.38;;;6.80;;
51098;SDS011;37146;48.210;16.234;2022-08-25T12:55:36;13.73;;;7.63;;
51098;SDS011;37146;48.210;16.234;2022-08-25T12:58:04;14.77;;;7.65;;
51098;SDS011;37146;48.210;16.234;2022-08-25T13:00:46;13.82;;;7.15;;
51098;SDS011;37146;48.210;16.234;2022-08-25T13:04:01;15.38;;;7.15;;
51098;SDS011;37146;48.210;16.234;2022-08-25T13:06:35;10.20;;;6.93;;
51098;SDS011;37146;48.210;16.234;2022-08-25T13:12:08;18.73;;;7.90;;
51098;SDS011;37146;48.210;16.234;2022-08-25T13:14:39;11.00;;;7.35;;
51098;SDS011;37146;48.210;16.234;2022-08-25T13:17:07;15.18;;;7.60;;
51098;SDS011;37146;48.210;16.234;2022-08-25T13:19:33;10.75;;;6.80;;
51098;SDS011;37146;48.210;16.234;2022-08-25T13:22:00;15.10;;;7.57;;
51098;SDS011;37146;48.210;16.234;2022-08-25T13:24:34;13.77;;;7.57;;
51098;SDS011;37146;48.210;16.234;2022-08-25T13:27:06;17.40;;;7.32;;
51098;SDS011;37146;48.210;16.234;2022-08-25T13:29:34;12.63;;;7.40;;
51098;SDS011;37146;48.210;16.234;2022-08-25T13:32:12;9.68;;;6.72;;
51098;SDS011;37146;48.210;16.234;2022-08-25T13:34:41;14.95;;;7.43;;
51098;SDS011;37146;48.210;16.234;2022-08-25T13:37:14;17.02;;;6.75;;
51098;SDS011;37146;48.210;16.234;2022-08-25T13:42:59;13.57;;;6.85;;
51098;SDS011;37146;48.210;16.234;2022-08-25T13:45:31;9.75;;;6.75;;
51098;SDS011;37146;48.210;16.234;2022-08-25T13:48:00;11.60;;;6.60;;
51098;SDS011;37146;48.210;16.234;2022-08-25T13:57:58;8.93;;;6.05;;
51098;SDS011;37146;48.210;16.234;2022-08-25T14:00:32;14.68;;;6.85;;
51098;SDS011;37146;48.210;16.234;2022-08-25T14:03:02;9.63;;;5.72;;
51098;SDS011;37146;48.210;16.234;2022-08-25T14:08:05;10.60;;;6.07;;
51098;SDS011;37146;48.210;16.234;2022-08-25T14:10:42;9.40;;;5.57;;
51098;SDS011;37146;48.210;16.234;2022-08-25T14:15:52;13.70;;;6.05;;
51098;SDS011;37146;48.210;16.234;2022-08-25T14:20:47;11.65;;;5.57;;
51098;SDS011;37146;48.210;16.234;2022-08-25T14:23:17;11.68;;;6.22;;
51098;SDS011;37146;48.210;16.234;2022-08-25T14:25:45;10.52;;;5.95;;
51098;SDS011;37146;48.210;16.234;2022-08-25T14:28:14;10.32;;;5.63;;
51098;SDS011;37146;48.210;16.234;2022-08-25T14:30:46;10.43;;;5.68;;
51098;SDS011;37146;48.210;16.234;2022-08-25T14:33:14;13.43;;;6.38;;
51098;SDS011;37146;48.210;16.234;2022-08-25T14:35:45;10.15;;;5.47;;
51098;SDS011;37146;48.210;16.234;2022-08-25T14:38:12;14.00;;;6.07;;
51098;SDS011;37146;48.210;16.234;2022-08-25T14:40:38;14.05;;;5.63;;
51098;SDS011;37146;48.210;16.234;2022-08-25T14:43:05;9.27;;;5.82;;
51098;SDS011;37146;48.210;16.234;2022-08-25T14:45:31;9.75;;;5.28;;
51098;SDS011;37146;48.210;16.234;2022-08-25T14:48:01;10.20;;;4.78;;
51098;SDS011;37146;48.210;16.234;2022-08-25T14:50:31;8.95;;;4.75;;
51098;SDS011;37146;48.210;16.234;2022-08-25T14:52:56;9.13;;;4.80;;
51098;SDS011;37146;48.210;16.234;2022-08-25T14:55:22;9.65;;;4.93;;
51098;SDS011;37146;48.210;16.234;2022-08-25T14:57:47;8.57;;;4.43;;
51098;SDS011;37146;48.210;16.234;2022-08-25T15:00:12;7.13;;;4.30;;
51098;SDS011;37146;48.210;16.234;2022-08-25T15:02:40;11.95;;;5.18;;
51098;SDS011;37146;48.210;16.234;2022-08-25T15:05:08;11.23;;;4.95;;
51098;SDS011;37146;48.210;16.234;2022-08-25T15:07:35;9.00;;;4.68;;
51098;SDS011;37146;48.210;16.234;2022-08-25T15:10:20;10.07;;;5.00;;
51098;SDS011;37146;48.210;16.234;2022-08-25T15:12:45;9.23;;;5.28;;
51098;SDS011;37146;48.210;16.234;2022-08-25T15:15:11;13.07;;;5.28;;
51098;SDS011;37146;48.210;16.234;2022-08-25T15:17:37;8.90;;;4.65;;
51098;SDS011;37146;48.210;16.234;2022-08-25T15:20:05;8.75;;;4.68;;
51098;SDS011;37146;48.210;16.234;2022-08-25T15:22:31;7.97;;;4.70;;
51098;SDS011;37146;48.210;16.234;2022-08-25T15:24:56;9.07;;;4.70;;
51098;SDS011;37146;48.210;16.234;2022-08-25T15:27:22;9.80;;;4.88;;
51098;SDS011;37146;48.210;16.234;2022-08-25T15:29:47;10.15;;;5.15;;
51098;SDS011;37146;48.210;16.234;2022-08-25T15:32:13;8.85;;;5.03;;
51098;SDS011;37146;48.210;16.234;2022-08-25T15:34:38;8.32;;;4.65;;
51098;SDS011;37146;48.210;16.234;2022-08-25T15:37:08;12.52;;;5.15;;
51098;SDS011;37146;48.210;16.234;2022-08-25T15:39:39;8.95;;;4.80;;
51098;SDS011;37146;48.210;16.234;2022-08-25T15:42:07;10.13;;;5.20;;
51098;SDS011;37146;48.210;16.234;2022-08-25T15:44:36;8.35;;;4.80;;
51098;SDS011;37146;48.210;16.234;2022-08-25T15:47:02;6.97;;;4.72;;
51098;SDS011;37146;48.210;16.234;2022-08-25T15:49:28;10.07;;;4.60;;
51098;SDS011;37146;48.210;16.234;2022-08-25T15:51:54;9.80;;;4.55;;
51098;SDS011;37146;48.210;16.234;2022-08-25T15:54:21;6.97;;;4.55;;
51098;SDS011;37146;48.210;16.234;2022-08-25T15:56:47;10.10;;;4.47;;
51098;SDS011;37146;48.210;16.234;2022-08-25T15:59:13;8.48;;;4.47;;
51098;SDS011;37146;48.210;16.234;2022-08-25T16:01:39;7.18;;;4.45;;
51098;SDS011;37146;48.210;16.234;2022-08-25T16:04:05;11.85;;;4.45;;
51098;SDS011;37146;48.210;16.234;2022-08-25T16:06:31;9.40;;;4.43;;
51098;SDS011;37146;48.210;16.234;2022-08-25T16:08:57;5.13;;;4.15;;
51098;SDS011;37146;48.210;16.234;2022-08-25T16:11:24;6.32;;;4.00;;
51098;SDS011;37146;48.210;16.234;2022-08-25T16:13:52;7.82;;;4.50;;
51098;SDS011;37146;48.210;16.234;2022-08-25T16:16:19;10.02;;;4.38;;
51098;SDS011;37146;48.210;16.234;2022-08-25T16:18:47;12.48;;;4.75;;
51098;SDS011;37146;48.210;16.234;2022-08-25T16:21:14;7.38;;;4.35;;
51098;SDS011;37146;48.210;16.234;2022-08-25T16:23:41;8.88;;;4.20;;
51098;SDS011;37146;48.210;16.234;2022-08-25T16:26:08;6.93;;;4.30;;
51098;SDS011;37146;48.210;16.234;2022-08-25T16:28:35;8.13;;;4.47;;
51098;SDS011;37146;48.210;16.234;2022-08-25T16:31:04;9.03;;;4.63;;
51098;SDS011;37146;48.210;16.234;2022-08-25T16:33:33;11.43;;;4.55;;
51098;SDS011;37146;48.210;16.234;2022-08-25T16:38:38;9.23;;;4.47;;
51098;SDS011;37146;48.210;16.234;2022-08-25T16:41:05;10.57;;;5.03;;